createdAt,value
2023-12-21T00:02:25.727Z,99208.40
2023-12-21T00:08:04.191Z,99193.16
2023-12-21T00:14:16.110Z,99186.15
2023-12-21T00:17:02.308Z,99180.05
2023-12-21T00:20:04.391Z,99175.23
2023-12-21T00:23:04.944Z,99173.48
2023-12-21T00:25:56.804Z,99165.77
2023-12-21T00:28:52.191Z,99161.98
2023-12-21T00:31:41.474Z,99157.27
2023-12-21T00:34:38.533Z,99157.31
2023-12-21T00:37:28.409Z,99152.78
2023-12-21T00:40:16.359Z,99149.92
2023-12-21T00:43:19.422Z,99150.81
2023-12-21T00:46:18.225Z,99135.91
2023-12-21T00:49:06.393Z,99133.75
2023-12-21T00:51:51.661Z,99129.78
2023-12-21T00:54:21.823Z,99129.43
2023-12-21T00:56:51.281Z,99123.72
2023-12-21T00:59:20.316Z,99118.16
2023-12-21T01:01:49.448Z,99112.98
2023-12-21T01:07:33.054Z,99099.73
2023-12-21T01:10:29.203Z,99090.98
2023-12-21T01:13:03.792Z,99087.45
2023-12-21T01:15:36.496Z,99082.79
2023-12-21T01:18:11.143Z,99081.73
2023-12-21T01:20:47.698Z,99076.25
2023-12-21T01:27:26.430Z,99068.91
2023-12-21T01:30:24.851Z,99063.55
2023-12-21T01:33:12.456Z,99057.98
2023-12-21T01:36:00.204Z,99048.98
2023-12-21T01:39:10.513Z,99044.30
2023-12-21T01:42:01.150Z,99031.14
2023-12-21T01:52:40.728Z,99003.99
2023-12-21T01:55:38.420Z,98996.67
2023-12-21T01:58:47.664Z,98993.14
2023-12-21T02:01:50.855Z,98979.96
2023-12-21T02:04:37.509Z,98973.50
2023-12-21T02:07:28.815Z,98962.07
2023-12-21T02:10:24.624Z,98950.69
2023-12-21T02:13:13.673Z,98942.80
2023-12-21T02:15:44.811Z,98940.34
2023-12-21T02:18:15.405Z,98931.63
2023-12-21T02:20:45.015Z,98919.70
2023-12-21T02:23:17.578Z,98908.17
2023-12-21T02:25:46.437Z,98898.34
2023-12-21T02:28:15.424Z,98889.36
2023-12-21T02:30:45.505Z,98890.23
2023-12-21T02:33:14.229Z,98877.61
2023-12-21T02:35:44.675Z,98878.25
2023-12-21T02:38:13.057Z,98869.16
2023-12-21T02:40:41.544Z,98854.36
2023-12-21T02:43:09.969Z,98850.91
2023-12-21T02:46:20.781Z,98845.91
2023-12-21T02:49:46.430Z,98833.28
2023-12-21T02:52:43.387Z,98826.04
2023-12-21T02:55:14.427Z,98821.64
2023-12-21T02:57:45.198Z,98818.00
2023-12-21T03:00:58.842Z,98807.03
2023-12-21T03:03:29.299Z,98794.59
2023-12-21T03:06:11.296Z,98789.23
2023-12-21T03:08:46.119Z,98785.37
2023-12-21T03:11:44.572Z,98783.22
2023-12-21T03:17:47.054Z,98765.02
2023-12-21T03:20:16.236Z,98761.05
2023-12-21T03:22:45.099Z,98761.38
2023-12-21T03:25:14.582Z,98753.80
2023-12-21T03:27:43.053Z,98756.59
2023-12-21T03:34:17.333Z,98730.03
2023-12-21T03:37:47.352Z,98720.88
2023-12-21T03:43:40.835Z,98708.60
2023-12-21T03:46:52.153Z,98708.52
2023-12-21T03:49:49.293Z,98697.36
2023-12-21T03:52:38.144Z,98690.45
2023-12-21T03:55:26.800Z,98673.02
2023-12-21T04:00:53.853Z,98664.05
2023-12-21T04:03:24.834Z,98661.36
2023-12-21T04:05:55.329Z,98663.18
2023-12-21T04:08:25.482Z,98659.23
2023-12-21T04:10:55.703Z,98654.56
2023-12-21T04:13:26.308Z,98651.13
2023-12-21T04:15:56.514Z,98644.70
2023-12-21T04:18:27.552Z,98633.73
2023-12-21T04:21:01.680Z,98640.16
2023-12-21T04:23:31.868Z,98635.85
2023-12-21T04:26:02.147Z,98634.52
2023-12-21T04:28:32.488Z,98625.30
2023-12-21T04:31:02.965Z,98626.09
2023-12-21T04:33:33.900Z,98624.39
2023-12-21T04:36:04.895Z,98619.67
2023-12-21T04:38:35.272Z,98606.95
2023-12-21T04:41:07.049Z,98608.27
2023-12-21T04:43:37.315Z,98608.98
2023-12-21T04:46:08.203Z,98606.38
2023-12-21T04:48:38.751Z,98606.46
2023-12-21T04:51:17.340Z,98600.26
2023-12-21T04:53:47.553Z,98598.09
2023-12-21T04:56:18.699Z,98602.81
2023-12-21T04:58:49.124Z,98599.91
2023-12-21T05:01:20.108Z,98595.85
2023-12-21T05:03:51.629Z,98587.94
2023-12-21T05:06:22.548Z,98580.20
2023-12-21T05:08:53.112Z,98571.99
2023-12-21T05:11:23.442Z,98571.85
2023-12-21T05:13:53.612Z,98571.69
2023-12-21T05:16:24.324Z,98572.92
2023-12-21T05:18:55.565Z,98569.40
2023-12-21T05:21:25.867Z,98571.70
2023-12-21T05:23:56.026Z,98575.21
2023-12-21T05:26:26.681Z,98574.05
2023-12-21T05:28:58.814Z,98570.45
2023-12-21T05:31:29.192Z,98577.20
2023-12-21T05:33:59.850Z,98568.47
2023-12-21T05:36:30.496Z,98568.14
2023-12-21T05:39:01.702Z,98577.49
2023-12-21T05:41:32.440Z,98568.60
2023-12-21T05:44:02.813Z,98568.78
2023-12-21T05:46:33.162Z,98571.69
2023-12-21T05:49:04.214Z,98566.08
2023-12-21T05:51:34.300Z,98564.15
2023-12-21T05:54:04.956Z,98559.55
2023-12-21T05:56:38.899Z,98552.77
2023-12-21T05:59:10.730Z,98550.36
2023-12-21T06:01:42.745Z,98550.70
2023-12-21T06:04:13.581Z,98553.31
2023-12-21T06:06:48.210Z,98545.11
2023-12-21T06:09:18.725Z,98546.38
2023-12-21T06:11:51.178Z,98543.58
2023-12-21T06:14:21.305Z,98539.35
2023-12-21T06:16:51.752Z,98539.61
2023-12-21T06:19:22.154Z,98536.30
2023-12-21T06:21:51.061Z,98529.65
2023-12-21T06:24:20.555Z,98531.00
2023-12-21T06:26:50.947Z,98532.89
2023-12-21T06:29:21.681Z,98532.77
2023-12-21T06:31:52.115Z,98533.20
2023-12-21T06:34:22.862Z,98534.99
2023-12-21T06:36:54.291Z,98531.58
2023-12-21T06:39:24.655Z,98523.79
2023-12-21T06:41:55.116Z,98524.53
2023-12-21T06:44:25.818Z,98517.60
2023-12-21T06:46:55.001Z,98514.98
2023-12-21T06:49:25.170Z,98513.23
2023-12-21T06:51:55.664Z,98516.63
2023-12-21T06:54:24.534Z,98513.08
2023-12-21T06:56:52.918Z,98516.15
2023-12-21T06:59:21.384Z,98510.14
2023-12-21T07:01:49.807Z,98500.25
2023-12-21T07:04:18.438Z,98502.40
2023-12-21T07:06:47.058Z,98506.16
2023-12-21T07:09:16.983Z,98504.85
2023-12-21T07:11:46.754Z,98508.65
2023-12-21T07:14:18.168Z,98506.84
2023-12-21T07:16:48.722Z,98502.76
2023-12-21T07:19:18.941Z,98499.26
2023-12-21T07:21:47.802Z,98503.19
2023-12-21T07:24:17.026Z,98501.17
2023-12-21T07:26:45.644Z,98491.06
2023-12-21T07:29:14.076Z,98490.42
2023-12-21T07:31:43.995Z,98485.41
2023-12-21T07:34:14.558Z,98480.88
2023-12-21T07:36:44.123Z,98476.95
2023-12-21T07:39:15.124Z,98474.58
2023-12-21T07:41:44.512Z,98473.66
2023-12-21T07:44:12.907Z,98464.82
2023-12-21T07:46:43.161Z,98461.38
2023-12-21T07:49:12.802Z,98458.77
2023-12-21T07:51:41.187Z,98451.08
2023-12-21T07:54:09.774Z,98453.28
2023-12-21T07:56:38.247Z,98444.16
2023-12-21T07:59:08.261Z,98441.66
2023-12-21T08:01:36.766Z,98433.53
2023-12-21T08:04:05.270Z,98418.95
2023-12-21T08:06:33.750Z,98413.39
2023-12-21T08:09:02.529Z,98407.08
2023-12-21T08:11:31.181Z,98406.20
2023-12-21T08:13:59.806Z,98402.28
2023-12-21T08:16:28.296Z,98395.86
2023-12-21T08:18:57.339Z,98393.11
2023-12-21T08:21:26.239Z,98394.13
2023-12-21T08:23:55.885Z,98397.72
2023-12-21T08:26:25.980Z,98390.23
2023-12-21T08:28:54.777Z,98382.84
2023-12-21T08:31:28.284Z,98382.98
2023-12-21T08:33:57.119Z,98382.63
2023-12-21T08:36:25.667Z,98377.44
2023-12-21T08:38:54.934Z,98372.71
2023-12-21T08:41:26.559Z,98364.14
2023-12-21T08:43:56.651Z,98357.89
2023-12-21T08:46:25.397Z,98348.56
2023-12-21T08:48:53.934Z,98343.75
2023-12-21T08:51:23.610Z,98338.42
2023-12-21T08:53:51.973Z,98340.41
2023-12-21T08:56:20.326Z,98327.23
2023-12-21T08:58:48.815Z,98316.02
2023-12-21T09:01:17.327Z,98306.80
2023-12-21T09:03:45.863Z,98306.33
2023-12-21T09:06:14.465Z,98301.59
2023-12-21T09:08:42.796Z,98298.83
2023-12-21T09:11:12.528Z,98292.30
2023-12-21T09:13:41.009Z,98285.11
2023-12-21T09:16:09.444Z,98269.31
2023-12-21T09:18:38.088Z,98260.16
2023-12-21T09:21:06.790Z,98252.61
2023-12-21T09:23:35.588Z,98247.14
2023-12-21T09:26:04.852Z,98246.13
2023-12-21T09:28:33.304Z,98241.15
2023-12-21T09:34:22.007Z,98226.20
2023-12-21T09:36:56.092Z,98217.85
2023-12-21T09:39:34.680Z,98217.79
2023-12-21T09:42:24.045Z,98208.27
2023-12-21T09:44:54.464Z,98196.87
2023-12-21T09:47:25.743Z,98187.23
2023-12-21T09:49:55.741Z,98177.30
2023-12-21T09:55:07.820Z,98157.98
2023-12-21T09:57:40.810Z,98154.70
2023-12-21T10:00:13.435Z,98143.91
2023-12-21T10:06:51.986Z,98120.48
2023-12-21T10:09:20.841Z,98110.35
2023-12-21T10:11:49.300Z,98107.92
2023-12-21T10:17:40.949Z,98088.29
2023-12-21T10:20:13.739Z,98086.96
2023-12-21T10:22:47.357Z,98079.34
2023-12-21T10:25:16.631Z,98073.81
2023-12-21T10:28:15.906Z,98059.77
2023-12-21T10:30:44.456Z,98053.75
2023-12-21T10:33:14.084Z,98043.09
2023-12-21T10:36:22.952Z,98043.35
2023-12-21T10:39:23.440Z,98021.73
2023-12-21T10:42:01.831Z,98010.66
2023-12-21T10:44:51.798Z,98001.42
2023-12-21T10:47:29.936Z,97990.36
2023-12-21T10:49:59.048Z,97985.12
2023-12-21T10:52:29.764Z,97975.04
2023-12-21T10:55:02.652Z,97965.45
2023-12-21T10:57:31.948Z,97952.58
2023-12-21T11:00:02.103Z,97940.32
2023-12-21T11:02:31.705Z,97928.41
2023-12-21T11:05:00.838Z,97915.38
2023-12-21T11:07:31.632Z,97900.52
2023-12-21T11:10:08.837Z,97896.35
2023-12-21T11:12:37.579Z,97889.63
2023-12-21T11:15:07.348Z,97882.35
2023-12-21T11:17:37.296Z,97875.80
2023-12-21T11:20:39.788Z,97870.95
2023-12-21T11:38:54.182Z,97810.59
2023-12-21T11:41:29.400Z,97803.79
2023-12-21T11:44:38.777Z,97796.46
2023-12-21T11:47:16.799Z,97787.08
2023-12-21T11:50:18.742Z,97777.96
2023-12-21T11:53:17.689Z,97764.26
2023-12-21T11:56:33.308Z,97756.98
2023-12-21T11:59:38.291Z,97750.23
2023-12-21T12:02:12.016Z,97741.48
2023-12-21T12:04:39.866Z,97733.66
2023-12-21T12:07:22.665Z,97727.92
2023-12-21T12:09:54.793Z,97722.87
2023-12-21T12:12:29.943Z,97720.85
2023-12-21T12:14:57.191Z,97713.17
2023-12-21T12:17:24.316Z,97709.21
2023-12-21T12:19:55.333Z,97695.70
2023-12-21T12:22:22.626Z,97689.40
2023-12-21T12:24:51.815Z,97681.09
2023-12-21T12:27:19.398Z,97673.40
2023-12-21T12:29:54.541Z,97660.40
2023-12-21T12:32:22.592Z,97655.80
2023-12-21T12:35:34.950Z,97647.76
2023-12-21T12:38:04.822Z,97643.16
2023-12-21T12:40:36.500Z,97626.95
2023-12-21T12:43:05.562Z,97616.19
2023-12-21T12:45:50.205Z,97611.96
2023-12-21T12:48:22.696Z,97602.86
2023-12-21T12:50:55.526Z,97591.41
2023-12-21T12:53:26.451Z,97583.17
2023-12-21T12:55:58.103Z,97566.54
2023-12-21T12:58:27.448Z,97561.14
2023-12-21T13:00:54.595Z,97553.71
2023-12-21T13:03:21.704Z,97544.04
2023-12-21T13:05:50.299Z,97532.28
2023-12-21T13:08:22.034Z,97516.09
2023-12-21T13:10:49.132Z,97511.45
2023-12-21T13:13:23.331Z,97499.90
2023-12-21T13:15:51.648Z,97493.56
2023-12-21T13:18:18.790Z,97487.51
2023-12-21T13:20:46.901Z,97481.95
2023-12-21T13:23:14.052Z,97469.98
2023-12-21T13:25:41.218Z,97464.24
2023-12-21T13:28:21.911Z,97457.12
2023-12-21T13:30:49.254Z,97449.51
2023-12-21T13:33:18.687Z,97444.81
2023-12-21T13:35:48.635Z,97437.85
2023-12-21T13:38:16.492Z,97431.98
2023-12-21T13:40:49.338Z,97422.71
2023-12-21T13:43:22.437Z,97412.27
2023-12-21T13:45:49.961Z,97403.70
2023-12-21T13:48:19.518Z,97393.42
2023-12-21T13:50:46.612Z,97381.64
2023-12-21T13:53:14.218Z,97365.92
2023-12-21T13:55:42.283Z,97356.15
2023-12-21T13:58:10.171Z,97352.22
2023-12-21T14:00:39.813Z,97341.06
2023-12-21T14:03:12.359Z,97330.66
2023-12-21T14:06:07.926Z,97322.75
2023-12-21T14:08:59.784Z,97318.61
2023-12-21T14:14:27.620Z,97304.61
2023-12-21T14:17:08.018Z,97302.58
2023-12-21T14:20:14.795Z,97297.86
2023-12-21T14:22:47.189Z,97286.88
2023-12-21T14:25:25.110Z,97283.86
2023-12-21T14:27:56.670Z,97273.89
2023-12-21T14:30:26.503Z,97266.83
2023-12-21T14:32:58.479Z,97261.02
2023-12-21T14:35:36.381Z,97249.69
2023-12-21T14:38:33.924Z,97241.16
2023-12-21T14:41:04.532Z,97251.05
2023-12-21T14:43:42.848Z,97236.11
2023-12-21T14:46:41.207Z,97231.43
2023-12-21T14:49:14.085Z,97220.11
2023-12-21T14:51:51.114Z,97215.11
2023-12-21T14:54:48.924Z,97202.56
2023-12-21T14:57:20.729Z,97181.64
2023-12-21T14:59:49.806Z,97182.42
2023-12-21T15:02:21.702Z,97166.65
2023-12-21T15:05:00.363Z,97160.37
2023-12-21T15:07:58.691Z,97142.45
2023-12-21T15:10:36.294Z,97146.22
2023-12-21T15:13:10.335Z,97145.96
2023-12-21T15:15:39.403Z,97132.34
2023-12-21T15:18:54.452Z,97122.98
2023-12-21T15:21:31.845Z,97119.77
2023-12-21T15:24:07.358Z,97105.17
2023-12-21T15:26:35.747Z,97092.77
2023-12-21T15:29:08.069Z,97093.78
2023-12-21T15:31:35.677Z,97085.55
2023-12-21T15:34:02.874Z,97078.59
2023-12-21T15:36:31.089Z,97073.74
2023-12-21T15:38:59.601Z,97068.48
2023-12-21T15:41:26.941Z,97061.95
2023-12-21T15:43:54.389Z,97058.59
2023-12-21T15:46:21.457Z,97052.37
2023-12-21T15:48:48.592Z,97057.24
2023-12-21T15:51:16.220Z,97045.91
2023-12-21T15:53:43.189Z,97033.02
2023-12-21T15:56:14.037Z,97017.88
2023-12-21T15:58:41.023Z,97015.39
2023-12-21T16:01:08.141Z,97017.63
2023-12-21T16:03:35.250Z,97013.73
2023-12-21T16:06:02.404Z,97003.21
2023-12-21T16:08:29.588Z,97000.39
2023-12-21T16:10:56.690Z,96994.51
2023-12-21T16:13:23.976Z,96996.77
2023-12-21T16:21:59.710Z,96981.07
2023-12-21T16:24:28.117Z,96981.70
2023-12-21T16:26:56.527Z,96975.04
2023-12-21T16:29:25.152Z,96966.93
2023-12-21T16:31:53.735Z,96965.95
2023-12-21T16:34:22.126Z,96958.98
2023-12-21T16:36:50.684Z,96957.95
2023-12-21T16:39:19.165Z,96946.83
2023-12-21T16:41:47.502Z,96949.04
2023-12-21T16:44:16.211Z,96947.77
2023-12-21T16:46:44.624Z,96943.49
2023-12-21T16:49:13.121Z,96941.45
2023-12-21T16:51:41.609Z,96931.09
2023-12-21T16:54:10.514Z,96929.34
2023-12-21T16:56:42.199Z,96924.67
2023-12-21T16:59:17.419Z,96915.33
2023-12-21T17:01:45.809Z,96910.52
2023-12-21T17:04:14.396Z,96916.52
2023-12-21T17:06:43.055Z,96910.48
2023-12-21T17:09:11.470Z,96910.46
2023-12-21T17:11:40.197Z,96910.20
2023-12-21T17:14:08.663Z,96899.88
2023-12-21T17:16:37.120Z,96894.92
2023-12-21T17:19:05.669Z,96885.35
2023-12-21T17:21:34.149Z,96874.16
2023-12-21T17:24:03.647Z,96869.77
2023-12-21T17:26:32.171Z,96874.55
2023-12-21T17:29:00.637Z,96862.43
2023-12-21T17:31:29.087Z,96865.46
2023-12-21T17:33:57.625Z,96879.00
2023-12-21T17:36:26.218Z,96882.92
2023-12-21T17:38:54.608Z,96870.73
2023-12-21T17:41:22.933Z,96866.23
2023-12-21T17:43:52.933Z,96873.64
2023-12-21T17:46:23.258Z,96868.33
2023-12-21T17:48:52.128Z,96863.38
2023-12-21T17:51:20.553Z,96861.66
2023-12-21T17:53:49.065Z,96879.98
2023-12-21T17:56:17.528Z,96879.73
2023-12-21T17:58:46.018Z,96885.67
2023-12-21T18:01:14.687Z,96887.98
2023-12-21T18:03:43.252Z,96895.20
2023-12-21T18:06:11.759Z,96902.27
2023-12-21T18:08:41.707Z,96916.59
2023-12-21T18:11:14.978Z,96949.49
2023-12-21T18:13:43.861Z,96963.11
2023-12-21T18:16:12.542Z,96972.41
2023-12-21T18:21:05.758Z,96977.66
2023-12-21T18:23:34.257Z,96949.73
2023-12-21T18:26:02.766Z,96924.73
2023-12-21T18:28:31.382Z,96935.49
2023-12-21T18:30:59.748Z,96943.82
2023-12-21T18:33:28.263Z,96932.23
2023-12-21T18:35:56.572Z,96897.98
2023-12-21T18:38:24.898Z,96887.98
2023-12-21T18:40:53.419Z,96899.92
2023-12-21T18:43:21.903Z,96918.27
2023-12-21T18:45:52.528Z,96917.77
2023-12-21T18:48:21.279Z,96918.19
2023-12-21T18:50:49.875Z,96924.70
2023-12-21T18:53:18.642Z,96919.18
2023-12-21T18:55:47.064Z,96927.45
2023-12-21T18:58:15.543Z,96937.80
2023-12-21T19:00:44.739Z,96932.83
2023-12-21T19:03:13.324Z,96942.41
2023-12-21T19:05:46.731Z,96942.59
2023-12-21T19:08:16.426Z,96951.48
2023-12-21T19:10:45.437Z,96945.39
2023-12-21T19:13:13.959Z,96926.36
2023-12-21T19:15:46.376Z,96935.33
2023-12-21T19:18:15.690Z,96931.08
2023-12-21T19:20:45.844Z,96937.80
2023-12-21T19:23:16.069Z,96930.77
2023-12-21T19:25:44.547Z,96918.96
2023-12-21T19:28:12.949Z,96889.05
2023-12-21T19:30:41.539Z,96872.02
2023-12-21T19:33:14.920Z,96851.29
2023-12-21T19:35:43.625Z,96886.02
2023-12-21T19:38:11.973Z,96907.34
2023-12-21T19:40:40.387Z,96923.09
2023-12-21T19:43:08.927Z,96948.02
2023-12-21T19:45:37.414Z,96957.48
2023-12-21T19:48:07.470Z,96970.25
2023-12-21T19:50:40.773Z,96972.77
2023-12-21T19:53:10.745Z,96984.34
2023-12-21T19:55:40.438Z,96974.27
2023-12-21T19:58:10.696Z,96980.84
2023-12-21T20:00:39.163Z,96978.23
2023-12-21T20:03:09.599Z,96978.91
2023-12-21T20:05:38.750Z,96986.42
2023-12-21T20:08:07.431Z,96985.45
2023-12-21T20:10:35.917Z,96988.63
2023-12-21T20:13:05.609Z,96973.93
2023-12-21T20:15:34.071Z,96974.29
2023-12-21T20:18:03.949Z,96978.42
2023-12-21T20:20:33.270Z,96989.05
2023-12-21T20:23:01.856Z,96978.97
2023-12-21T20:25:30.455Z,96966.79
2023-12-21T20:28:02.625Z,96985.98
2023-12-21T20:30:31.870Z,96989.10
2023-12-21T20:33:00.523Z,96988.96
2023-12-21T20:35:29.192Z,96997.44
2023-12-21T20:37:57.828Z,97003.09
2023-12-21T20:40:26.700Z,97010.63
2023-12-21T20:42:55.177Z,97017.36
2023-12-21T20:45:23.542Z,97018.05
2023-12-21T20:47:52.153Z,97029.27
2023-12-21T20:50:20.979Z,97029.98
2023-12-21T20:52:50.828Z,97031.86
2023-12-21T20:55:20.851Z,97036.38
2023-12-21T20:57:49.541Z,97031.23
2023-12-21T21:00:18.819Z,97025.40
2023-12-21T21:02:47.341Z,97024.30
2023-12-21T21:05:17.263Z,97030.38
2023-12-21T21:07:45.919Z,97033.55
2023-12-21T21:10:14.495Z,97031.67
2023-12-21T21:12:42.975Z,97049.80
2023-12-21T21:15:11.504Z,97064.03
2023-12-21T21:17:39.960Z,97059.81
2023-12-21T21:20:09.050Z,97084.15
2023-12-21T21:22:40.510Z,97090.44
2023-12-21T21:25:09.755Z,97100.39
2023-12-21T21:27:39.582Z,97093.34
2023-12-21T21:30:11.764Z,97096.54
2023-12-21T21:33:00.179Z,97088.80
2023-12-21T21:35:28.747Z,97095.19
2023-12-21T21:37:57.231Z,97118.33
2023-12-21T21:40:25.938Z,97125.50
2023-12-21T21:42:54.284Z,97129.34
2023-12-21T21:45:22.958Z,97126.14
2023-12-21T21:47:51.713Z,97123.61
2023-12-21T21:50:20.347Z,97118.77
2023-12-21T21:52:49.223Z,97114.25
2023-12-21T21:55:17.872Z,97123.25
2023-12-21T21:57:46.530Z,97127.76
2023-12-21T22:00:16.125Z,97131.14
2023-12-21T22:02:44.459Z,97126.45
2023-12-21T22:05:13.401Z,97119.89
2023-12-21T22:07:42.129Z,97115.73
2023-12-21T22:10:10.672Z,97120.41
2023-12-21T22:12:39.210Z,97119.52
2023-12-21T22:15:07.889Z,97131.11
2023-12-21T22:17:36.437Z,97136.42
2023-12-21T22:20:05.654Z,97134.80
2023-12-21T22:22:34.111Z,97160.58
2023-12-21T22:25:02.700Z,97147.67
2023-12-21T22:27:31.059Z,97156.34
2023-12-21T22:29:59.465Z,97171.52
2023-12-21T22:32:27.989Z,97171.29
2023-12-21T22:34:56.482Z,97168.21
2023-12-21T22:37:24.897Z,97167.23
2023-12-21T22:39:53.956Z,97168.55
2023-12-21T22:42:24.307Z,97176.35
2023-12-21T22:44:54.181Z,97189.21
2023-12-21T22:47:22.714Z,97185.94
2023-12-21T22:49:52.912Z,97188.14
2023-12-21T22:52:21.414Z,97188.43
2023-12-21T22:54:49.785Z,97186.33
2023-12-21T22:57:18.319Z,97197.17
2023-12-21T22:59:46.619Z,97182.39
2023-12-21T23:02:15.112Z,97185.75
2023-12-21T23:04:43.605Z,97191.81
2023-12-21T23:07:12.488Z,97193.02
2023-12-21T23:09:42.408Z,97202.95
2023-12-21T23:12:10.811Z,97192.23
2023-12-21T23:14:39.201Z,97197.60
2023-12-21T23:17:08.144Z,97197.98
2023-12-21T23:19:36.570Z,97198.88
2023-12-21T23:22:04.953Z,97201.40
2023-12-21T23:24:38.346Z,97198.87
2023-12-21T23:27:07.830Z,97197.17
2023-12-21T23:29:36.528Z,97194.65
2023-12-21T23:32:05.506Z,97192.28
2023-12-21T23:34:34.068Z,97199.06
2023-12-21T23:37:02.557Z,97206.09
2023-12-21T23:39:30.942Z,97200.86
2023-12-21T23:41:59.313Z,97204.30
2023-12-21T23:44:27.701Z,97212.19
2023-12-21T23:46:56.309Z,97220.44
2023-12-21T23:49:24.766Z,97219.11
2023-12-21T23:51:53.159Z,97223.05
2023-12-21T23:54:21.690Z,97227.46
2023-12-21T23:56:50.371Z,97240.06
2023-12-21T23:59:18.835Z,97226.91
